createdAt,value
2018-07-30T00:00:01.933Z,98506.61
2018-07-30T00:02:36.426Z,98507.87
2018-07-30T00:05:07.611Z,98504.36
2018-07-30T00:07:36.793Z,98503.97
2018-07-30T00:10:06.497Z,98491.13
2018-07-30T00:12:36.332Z,98496.86
2018-07-30T00:15:06.021Z,98500.30
2018-07-30T00:17:35.200Z,98504.84
2018-07-30T00:20:04.481Z,98500.77
2018-07-30T00:22:33.817Z,98503.48
2018-07-30T00:25:03.059Z,98496.39
2018-07-30T00:27:32.241Z,98505.47
2018-07-30T00:30:01.454Z,98507.41
2018-07-30T00:32:30.669Z,98503.01
2018-07-30T00:34:59.852Z,98500.55
2018-07-30T00:37:29.022Z,98502.92
2018-07-30T00:39:58.184Z,98503.48
2018-07-30T00:42:27.394Z,98506.44
2018-07-30T00:44:56.522Z,98505.09
2018-07-30T00:47:25.744Z,98499.91
2018-07-30T00:49:54.973Z,98512.12
2018-07-30T00:52:24.118Z,98506.44
2018-07-30T00:54:53.365Z,98510.84
2018-07-30T00:57:22.489Z,98509.48
2018-07-30T00:59:51.619Z,98513.06
2018-07-30T01:02:20.781Z,98517.21
2018-07-30T01:04:50.065Z,98522.16
2018-07-30T01:07:19.207Z,98522.16
2018-07-30T01:09:48.356Z,98522.16
2018-07-30T01:12:17.512Z,98533.27
2018-07-30T01:14:46.649Z,98527.34
2018-07-30T01:17:16.170Z,98532.84
2018-07-30T01:19:45.394Z,98530.37
2018-07-30T01:22:14.531Z,98524.23
2018-07-30T01:24:43.685Z,98527.83
2018-07-30T01:27:12.853Z,98524.39
2018-07-30T01:29:42.021Z,98528.84
2018-07-30T01:32:11.233Z,98532.77
2018-07-30T01:34:40.401Z,98529.25
2018-07-30T01:37:09.664Z,98537.38
2018-07-30T01:39:39.012Z,98533.53
2018-07-30T01:42:08.198Z,98531.95
2018-07-30T01:44:37.338Z,98531.95
2018-07-30T01:47:06.606Z,98527.97
2018-07-30T01:49:35.769Z,98535.60
2018-07-30T01:52:05.153Z,98530.23
2018-07-30T01:54:34.286Z,98530.23
2018-07-30T01:57:03.478Z,98538.61
2018-07-30T01:59:32.756Z,98531.11
2018-07-30T02:02:01.909Z,98541.48
2018-07-30T02:04:31.072Z,98540.50
2018-07-30T02:07:00.230Z,98539.55
2018-07-30T02:09:29.388Z,98541.28
2018-07-30T02:11:58.600Z,98545.50
2018-07-30T02:14:27.759Z,98545.80
2018-07-30T02:16:57.005Z,98542.94
2018-07-30T02:19:26.155Z,98542.69
2018-07-30T02:21:55.309Z,98546.27
2018-07-30T02:24:24.468Z,98548.55
2018-07-30T02:26:53.675Z,98550.48
2018-07-30T02:29:22.849Z,98547.05
2018-07-30T02:31:52.070Z,98552.21
2018-07-30T02:34:21.298Z,98553.71
2018-07-30T02:36:50.522Z,98557.92
2018-07-30T02:39:19.677Z,98550.41
2018-07-30T02:41:48.888Z,98554.70
2018-07-30T02:44:18.024Z,98548.00
2018-07-30T02:46:47.228Z,98553.42
2018-07-30T02:49:16.398Z,98549.94
2018-07-30T02:51:45.569Z,98553.75
2018-07-30T02:54:14.917Z,98553.49
2018-07-30T02:56:44.186Z,98557.33
2018-07-30T02:59:13.318Z,98560.11
2018-07-30T03:01:42.480Z,98558.57
2018-07-30T03:04:11.662Z,98555.13
2018-07-30T03:06:40.829Z,98565.41
2018-07-30T03:09:11.622Z,98568.42
2018-07-30T03:11:40.809Z,98572.48
2018-07-30T03:14:10.007Z,98580.86
2018-07-30T03:16:39.187Z,98579.98
2018-07-30T03:19:08.639Z,98576.47
2018-07-30T03:21:37.798Z,98573.47
2018-07-30T03:24:07.020Z,98575.45
2018-07-30T03:26:36.952Z,98583.38
2018-07-30T03:29:06.262Z,98590.11
2018-07-30T03:31:35.402Z,98590.60
2018-07-30T03:34:04.597Z,98587.77
2018-07-30T03:36:33.763Z,98592.44
2018-07-30T03:39:02.979Z,98597.86
2018-07-30T03:41:32.161Z,98598.16
2018-07-30T03:44:01.370Z,98603.50
2018-07-30T03:46:30.584Z,98601.05
2018-07-30T03:48:59.752Z,98602.66
2018-07-30T03:51:28.991Z,98598.83
2018-07-30T03:53:58.145Z,98607.69
2018-07-30T03:56:27.381Z,98610.66
2018-07-30T03:58:56.602Z,98603.34
2018-07-30T04:01:25.728Z,98604.69
2018-07-30T04:03:54.973Z,98602.20
2018-07-30T04:06:24.356Z,98602.17
2018-07-30T04:08:53.797Z,98605.14
2018-07-30T04:11:23.114Z,98603.97
2018-07-30T04:13:52.336Z,98598.74
2018-07-30T04:16:21.513Z,98601.31
2018-07-30T04:18:50.693Z,98615.02
2018-07-30T04:21:19.911Z,98613.63
2018-07-30T04:23:49.012Z,98612.20
2018-07-30T04:26:18.197Z,98602.11
2018-07-30T04:28:47.328Z,98605.70
2018-07-30T04:31:16.477Z,98606.92
2018-07-30T04:33:45.621Z,98604.65
2018-07-30T04:36:14.777Z,98599.56
2018-07-30T04:38:43.991Z,98608.55
2018-07-30T04:41:13.160Z,98611.30
2018-07-30T04:43:42.321Z,98608.91
2018-07-30T04:46:11.538Z,98604.95
2018-07-30T04:48:40.773Z,98603.95
2018-07-30T04:51:09.922Z,98607.90
2018-07-30T04:53:39.048Z,98609.84
2018-07-30T04:56:08.253Z,98606.34
2018-07-30T04:58:37.410Z,98608.74
2018-07-30T05:01:06.566Z,98613.88
2018-07-30T05:03:35.780Z,98613.09
2018-07-30T05:06:04.982Z,98617.48
2018-07-30T05:08:34.121Z,98623.72
2018-07-30T05:11:03.314Z,98623.47
2018-07-30T05:13:32.500Z,98623.26
2018-07-30T05:16:01.637Z,98637.26
2018-07-30T05:18:31.243Z,98628.37
2018-07-30T05:21:00.357Z,98628.03
2018-07-30T05:23:29.499Z,98631.30
2018-07-30T05:25:58.675Z,98632.02
2018-07-30T05:28:27.794Z,98640.00
2018-07-30T05:30:56.966Z,98635.74
2018-07-30T05:33:26.133Z,98639.71
2018-07-30T05:35:55.373Z,98646.40
2018-07-30T05:38:24.561Z,98648.35
2018-07-30T05:40:53.799Z,98646.20
2018-07-30T05:43:22.964Z,98643.59
2018-07-30T05:45:52.130Z,98645.94
2018-07-30T05:48:21.301Z,98653.22
2018-07-30T05:50:50.499Z,98649.68
2018-07-30T05:53:19.645Z,98653.66
2018-07-30T05:55:48.780Z,98649.66
2018-07-30T05:58:17.922Z,98651.73
2018-07-30T06:00:47.049Z,98652.84
2018-07-30T06:03:16.209Z,98656.79
2018-07-30T06:05:45.418Z,98655.84
2018-07-30T06:08:14.526Z,98655.06
2018-07-30T06:10:43.771Z,98650.09
2018-07-30T06:13:12.903Z,98656.77
2018-07-30T06:15:42.075Z,98659.25
2018-07-30T06:18:11.242Z,98661.02
2018-07-30T06:20:40.400Z,98659.26
2018-07-30T06:23:09.732Z,98670.75
2018-07-30T06:25:39.023Z,98668.44
2018-07-30T06:28:08.215Z,98670.38
2018-07-30T06:30:37.444Z,98670.05
2018-07-30T06:33:06.744Z,98671.09
2018-07-30T06:35:35.961Z,98670.80
2018-07-30T06:38:05.123Z,98673.77
2018-07-30T06:40:34.289Z,98671.27
2018-07-30T06:43:03.421Z,98670.82
2018-07-30T06:45:32.571Z,98676.29
2018-07-30T06:48:01.802Z,98671.28
2018-07-30T06:50:31.173Z,98674.22
2018-07-30T06:53:00.285Z,98671.72
2018-07-30T06:55:29.549Z,98673.56
2018-07-30T06:57:58.701Z,98672.85
2018-07-30T07:00:27.863Z,98671.48
2018-07-30T07:02:57.078Z,98679.59
2018-07-30T07:05:26.283Z,98675.73
2018-07-30T07:07:55.501Z,98679.14
2018-07-30T07:10:24.720Z,98676.73
2018-07-30T07:12:53.884Z,98685.34
2018-07-30T07:15:23.119Z,98685.44
2018-07-30T07:17:52.269Z,98685.91
2018-07-30T07:20:23.036Z,98685.50
2018-07-30T07:22:52.272Z,98692.03
2018-07-30T07:25:21.485Z,98681.09
2018-07-30T07:27:50.662Z,98691.16
2018-07-30T07:30:19.806Z,98690.72
2018-07-30T07:32:49.162Z,98685.61
2018-07-30T07:35:18.290Z,98690.08
2018-07-30T07:37:47.459Z,98691.67
2018-07-30T07:40:16.607Z,98683.37
2018-07-30T07:42:45.749Z,98686.64
2018-07-30T07:45:14.869Z,98684.00
2018-07-30T07:47:44.105Z,98688.77
2018-07-30T07:50:13.377Z,98681.97
2018-07-30T07:52:42.389Z,98689.83
2018-07-30T07:55:11.569Z,98685.20
2018-07-30T07:57:40.713Z,98681.06
2018-07-30T08:00:10.977Z,98687.15
2018-07-30T08:02:40.254Z,98676.05
2018-07-30T08:05:09.619Z,98672.41
2018-07-30T08:07:38.750Z,98680.34
2018-07-30T08:10:08.790Z,98679.23
2018-07-30T08:12:37.957Z,98681.83
2018-07-30T08:15:08.433Z,98684.24
2018-07-30T08:17:37.603Z,98681.06
2018-07-30T08:20:08.276Z,98681.73
2018-07-30T08:22:37.589Z,98687.22
2018-07-30T08:25:10.096Z,98684.79
2018-07-30T08:27:39.216Z,98689.09
2018-07-30T08:30:08.741Z,98692.33
2018-07-30T08:32:38.249Z,98695.02
2018-07-30T08:35:07.832Z,98687.00
2018-07-30T08:37:37.010Z,98689.77
2018-07-30T08:40:07.224Z,98688.86
2018-07-30T08:42:36.377Z,98687.11
2018-07-30T08:45:06.635Z,98684.44
2018-07-30T08:47:35.792Z,98685.93
2018-07-30T08:50:05.180Z,98680.04
2018-07-30T08:52:34.352Z,98688.02
2018-07-30T08:55:03.647Z,98686.06
2018-07-30T08:57:32.817Z,98690.09
2018-07-30T09:00:01.986Z,98685.19
2018-07-30T09:02:31.208Z,98684.41
2018-07-30T09:05:01.184Z,98688.06
2018-07-30T09:07:30.319Z,98688.88
2018-07-30T09:10:00.338Z,98690.20
2018-07-30T09:12:29.513Z,98694.80
2018-07-30T09:14:58.668Z,98693.48
2018-07-30T09:17:27.800Z,98692.50
2018-07-30T09:19:56.919Z,98697.03
2018-07-30T09:22:26.093Z,98688.56
2018-07-30T09:24:55.423Z,98690.98
2018-07-30T09:27:24.584Z,98694.28
2018-07-30T09:29:53.728Z,98692.75
2018-07-30T09:32:22.864Z,98693.28
2018-07-30T09:34:52.009Z,98695.73
2018-07-30T09:37:21.174Z,98693.47
2018-07-30T09:39:50.792Z,98694.58
2018-07-30T09:42:19.990Z,98693.11
2018-07-30T09:44:49.133Z,98686.73
2018-07-30T09:47:18.424Z,98681.08
2018-07-30T09:49:47.621Z,98679.91
2018-07-30T09:52:16.776Z,98681.14
2018-07-30T09:54:45.959Z,98678.05
2018-07-30T09:57:15.125Z,98677.25
2018-07-30T09:59:44.373Z,98682.17
2018-07-30T10:02:13.491Z,98678.12
2018-07-30T10:04:45.320Z,98681.29
2018-07-30T10:07:15.129Z,98683.69
2018-07-30T10:09:44.297Z,98679.69
2018-07-30T10:12:13.479Z,98672.12
2018-07-30T10:14:42.614Z,98669.07
2018-07-30T10:17:11.749Z,98664.97
2018-07-30T10:19:41.002Z,98667.49
2018-07-30T10:22:10.160Z,98656.59
2018-07-30T10:24:39.292Z,98660.51
2018-07-30T10:27:08.782Z,98668.30
2018-07-30T10:29:37.934Z,98660.80
2018-07-30T10:32:07.111Z,98660.35
2018-07-30T10:34:36.384Z,98656.99
2018-07-30T10:37:05.706Z,98662.96
2018-07-30T10:39:34.840Z,98665.95
2018-07-30T10:42:04.041Z,98668.45
2018-07-30T10:44:33.209Z,98666.40
2018-07-30T10:47:02.325Z,98679.98
2018-07-30T10:49:31.447Z,98679.98
2018-07-30T10:52:00.608Z,98677.75
2018-07-30T10:54:29.739Z,98675.13
2018-07-30T10:56:58.893Z,98677.37
2018-07-30T10:59:28.142Z,98677.36
2018-07-30T11:01:57.260Z,98673.66
2018-07-30T11:04:26.462Z,98663.86
2018-07-30T11:06:55.708Z,98655.52
2018-07-30T11:09:26.704Z,98653.55
2018-07-30T11:11:53.961Z,98649.89
2018-07-30T11:14:23.286Z,98656.44
2018-07-30T11:16:52.402Z,98659.75
2018-07-30T11:19:21.510Z,98661.31
2018-07-30T11:21:50.634Z,98669.25
2018-07-30T11:24:19.766Z,98674.22
2018-07-30T11:26:48.997Z,98690.00
2018-07-30T11:29:18.097Z,98692.48
2018-07-30T11:31:47.254Z,98689.26
2018-07-30T11:34:16.370Z,98687.50
2018-07-30T11:36:45.627Z,98683.27
2018-07-30T11:39:14.726Z,98677.55
2018-07-30T11:41:43.961Z,98677.53
2018-07-30T11:44:13.094Z,98682.13
2018-07-30T11:46:42.220Z,98672.55
2018-07-30T11:49:11.390Z,98675.73
2018-07-30T11:51:40.585Z,98671.10
2018-07-30T11:54:13.744Z,98670.48
2018-07-30T11:56:42.918Z,98671.82
2018-07-30T11:59:12.034Z,98674.42
2018-07-30T12:01:41.182Z,98666.81
2018-07-30T12:04:10.361Z,98665.98
2018-07-30T12:06:39.477Z,98670.92
2018-07-30T12:09:08.760Z,98668.41
2018-07-30T12:11:37.957Z,98667.95
2018-07-30T12:14:07.133Z,98665.70
2018-07-30T12:16:36.249Z,98667.87
2018-07-30T12:19:05.530Z,98676.91
2018-07-30T12:21:34.673Z,98676.86
2018-07-30T12:24:04.005Z,98669.05
2018-07-30T12:26:35.377Z,98664.77
2018-07-30T12:29:08.635Z,98665.47
2018-07-30T12:31:37.889Z,98659.55
2018-07-30T12:34:08.302Z,98654.97
2018-07-30T12:36:49.417Z,98654.97
2018-07-30T12:39:34.448Z,98653.59
2018-07-30T12:42:12.004Z,98655.70
2018-07-30T12:44:56.411Z,98656.59
2018-07-30T12:47:31.246Z,98657.48
2018-07-30T12:50:17.113Z,98654.41
2018-07-30T12:53:01.258Z,98653.59
2018-07-30T12:55:36.684Z,98656.88
2018-07-30T12:58:11.473Z,98653.58
2018-07-30T13:00:40.721Z,98652.34
2018-07-30T13:03:09.909Z,98644.69
2018-07-30T13:05:39.054Z,98647.22
2018-07-30T13:08:08.764Z,98633.67
2018-07-30T13:10:37.905Z,98640.12
2018-07-30T13:13:07.185Z,98641.73
2018-07-30T13:15:36.478Z,98631.64
2018-07-30T13:18:05.609Z,98632.52
2018-07-30T13:20:34.781Z,98635.19
2018-07-30T13:23:04.040Z,98623.08
2018-07-30T13:25:33.187Z,98640.31
2018-07-30T13:28:02.333Z,98633.75
2018-07-30T13:30:31.488Z,98633.63
2018-07-30T13:33:00.607Z,98634.41
2018-07-30T13:35:29.774Z,98630.86
2018-07-30T13:37:59.125Z,98635.16
2018-07-30T13:40:28.230Z,98625.67
2018-07-30T13:42:57.516Z,98627.48
2018-07-30T13:45:26.653Z,98615.12
2018-07-30T13:47:55.755Z,98619.70
2018-07-30T13:50:24.911Z,98621.55
2018-07-30T13:52:54.103Z,98621.40
2018-07-30T13:55:23.212Z,98612.20
2018-07-30T13:57:52.431Z,98607.66
2018-07-30T14:00:21.575Z,98602.36
2018-07-30T14:02:50.697Z,98602.27
2018-07-30T14:05:19.904Z,98604.41
2018-07-30T14:07:49.056Z,98602.01
2018-07-30T14:10:18.204Z,98600.48
2018-07-30T14:12:47.415Z,98600.98
2018-07-30T14:15:16.526Z,98599.42
2018-07-30T14:17:45.672Z,98603.92
2018-07-30T14:20:14.875Z,98599.82
2018-07-30T14:22:44.000Z,98592.69
2018-07-30T14:25:13.285Z,98589.45
2018-07-30T14:27:42.409Z,98590.78
2018-07-30T14:30:11.510Z,98579.45
2018-07-30T14:32:40.644Z,98579.23
2018-07-30T14:35:10.882Z,98573.95
2018-07-30T14:37:40.010Z,98568.37
2018-07-30T14:40:11.822Z,98569.30
2018-07-30T14:42:41.311Z,98566.38
2018-07-30T14:45:10.505Z,98563.95
2018-07-30T14:47:39.711Z,98562.59
2018-07-30T14:50:09.770Z,98564.98
2018-07-30T14:52:38.928Z,98553.27
2018-07-30T14:55:08.597Z,98553.48
2018-07-30T14:57:37.744Z,98550.25
2018-07-30T15:00:08.288Z,98549.47
2018-07-30T15:02:37.598Z,98550.59
2018-07-30T15:05:07.032Z,98546.72
2018-07-30T15:07:36.210Z,98547.91
2018-07-30T15:10:05.977Z,98539.69
2018-07-30T15:12:35.235Z,98536.83
2018-07-30T15:15:04.364Z,98541.64
2018-07-30T15:17:33.477Z,98532.12
2018-07-30T15:20:02.649Z,98536.13
2018-07-30T15:22:31.733Z,98530.44
2018-07-30T15:25:00.849Z,98535.73
2018-07-30T15:27:29.957Z,98538.16
2018-07-30T15:29:59.110Z,98543.48
2018-07-30T15:32:28.856Z,98543.33
2018-07-30T15:34:58.014Z,98546.51
2018-07-30T15:37:27.156Z,98547.94
2018-07-30T15:39:56.330Z,98549.61
2018-07-30T15:42:25.435Z,98542.28
2018-07-30T15:44:54.556Z,98539.28
2018-07-30T15:47:23.752Z,98542.03
2018-07-30T15:49:52.897Z,98536.16
2018-07-30T15:52:22.107Z,98541.67
2018-07-30T15:54:51.260Z,98543.54
2018-07-30T15:57:20.348Z,98540.28
2018-07-30T15:59:49.472Z,98537.95
2018-07-30T16:02:18.766Z,98538.30
2018-07-30T16:04:47.875Z,98542.46
2018-07-30T16:07:17.021Z,98541.66
2018-07-30T16:09:46.163Z,98535.20
2018-07-30T16:12:15.358Z,98531.01
2018-07-30T16:14:44.496Z,98533.92
2018-07-30T16:17:13.665Z,98532.91
2018-07-30T16:19:42.781Z,98534.11
2018-07-30T16:22:11.924Z,98536.67
2018-07-30T16:24:41.048Z,98537.81
2018-07-30T16:27:10.752Z,98538.73
2018-07-30T16:29:39.889Z,98538.48
2018-07-30T16:32:09.033Z,98537.87
2018-07-30T16:34:38.151Z,98535.02
2018-07-30T16:37:07.410Z,98538.93
2018-07-30T16:39:36.544Z,98541.07
2018-07-30T16:42:05.757Z,98533.96
2018-07-30T16:44:34.875Z,98535.52
2018-07-30T16:47:04.168Z,98534.33
2018-07-30T16:49:33.225Z,98537.04
2018-07-30T16:52:02.432Z,98538.84
2018-07-30T16:54:31.616Z,98537.29
2018-07-30T16:57:00.724Z,98535.52
2018-07-30T16:59:29.890Z,98534.09
2018-07-30T17:01:59.132Z,98531.66
2018-07-30T17:04:28.531Z,98540.67
2018-07-30T17:06:57.661Z,98537.33
2018-07-30T17:09:26.818Z,98538.84
2018-07-30T17:11:55.929Z,98534.08
2018-07-30T17:14:25.037Z,98539.37
2018-07-30T17:16:54.273Z,98542.42
2018-07-30T17:19:23.402Z,98537.84
2018-07-30T17:21:52.518Z,98536.02
2018-07-30T17:24:21.673Z,98537.48
2018-07-30T17:26:50.769Z,98533.75
2018-07-30T17:29:19.885Z,98531.58
2018-07-30T17:31:49.060Z,98531.92
2018-07-30T17:34:18.168Z,98531.86
2018-07-30T17:36:47.268Z,98533.35
2018-07-30T17:39:16.391Z,98535.77
2018-07-30T17:41:45.497Z,98535.88
2018-07-30T17:44:14.665Z,98533.36
2018-07-30T17:46:43.817Z,98535.94
2018-07-30T17:49:12.929Z,98537.81
2018-07-30T17:51:42.055Z,98540.50
2018-07-30T17:54:11.243Z,98534.12
2018-07-30T17:56:40.443Z,98527.44
2018-07-30T17:59:09.555Z,98541.52
2018-07-30T18:01:38.852Z,98535.94
2018-07-30T18:04:11.235Z,98542.68
2018-07-30T18:06:40.404Z,98550.59
2018-07-30T18:09:10.133Z,98544.52
2018-07-30T18:11:39.512Z,98537.72
2018-07-30T18:14:11.547Z,98538.47
2018-07-30T18:16:40.787Z,98538.22
2018-07-30T18:19:11.485Z,98547.15
2018-07-30T18:21:40.608Z,98549.67
2018-07-30T18:24:09.721Z,98552.28
2018-07-30T18:26:39.180Z,98553.80
2018-07-30T18:29:09.821Z,98551.56
2018-07-30T18:31:38.921Z,98555.30
2018-07-30T18:34:08.045Z,98551.41
2018-07-30T18:36:37.218Z,98551.75
2018-07-30T18:39:07.344Z,98554.67
2018-07-30T18:41:36.496Z,98555.14
2018-07-30T18:44:05.639Z,98566.44
2018-07-30T18:46:34.801Z,98568.81
2018-07-30T18:49:03.926Z,98566.30
2018-07-30T18:51:33.040Z,98571.56
2018-07-30T18:54:02.166Z,98574.70
2018-07-30T18:56:31.329Z,98577.97
2018-07-30T18:59:00.417Z,98577.23
2018-07-30T19:01:29.579Z,98582.48
2018-07-30T19:03:58.700Z,98586.81
2018-07-30T19:06:27.870Z,98586.05
2018-07-30T19:08:57.064Z,98597.54
2018-07-30T19:11:26.342Z,98594.12
2018-07-30T19:13:55.505Z,98600.03
2018-07-30T19:16:24.614Z,98596.38
2018-07-30T19:18:53.788Z,98599.34
2018-07-30T19:21:22.913Z,98595.01
2018-07-30T19:23:52.291Z,98593.64
2018-07-30T19:26:21.454Z,98595.69
2018-07-30T19:28:50.630Z,98601.40
2018-07-30T19:31:19.905Z,98595.94
2018-07-30T19:33:49.028Z,98597.91
2018-07-30T19:36:18.159Z,98605.53
2018-07-30T19:38:47.379Z,98602.68
2018-07-30T19:41:16.580Z,98602.58
2018-07-30T19:43:45.702Z,98604.06
2018-07-30T19:46:15.257Z,98611.39
2018-07-30T19:48:44.420Z,98617.64
2018-07-30T19:51:13.489Z,98613.67
2018-07-30T19:53:42.693Z,98616.25
2018-07-30T19:56:11.858Z,98619.63
2018-07-30T19:58:41.540Z,98618.59
2018-07-30T20:01:10.215Z,98623.12
2018-07-30T20:03:39.497Z,98620.84
2018-07-30T20:06:08.613Z,98623.23
2018-07-30T20:08:37.718Z,98620.23
2018-07-30T20:11:08.103Z,98622.34
2018-07-30T20:13:37.294Z,98618.33
2018-07-30T20:16:06.661Z,98615.92
2018-07-30T20:18:35.762Z,98617.70
2018-07-30T20:21:05.073Z,98623.82
2018-07-30T20:23:34.220Z,98622.37
2018-07-30T20:26:03.394Z,98623.56
2018-07-30T20:28:32.549Z,98626.34
2018-07-30T20:31:01.726Z,98632.98
2018-07-30T20:33:30.895Z,98627.36
2018-07-30T20:36:00.008Z,98633.95
2018-07-30T20:38:29.136Z,98633.00
2018-07-30T20:40:58.285Z,98633.66
2018-07-30T20:43:27.761Z,98637.03
2018-07-30T20:45:57.378Z,98638.84
2018-07-30T20:48:26.492Z,98646.05
2018-07-30T20:50:55.834Z,98649.20
2018-07-30T20:53:24.946Z,98657.53
2018-07-30T20:55:54.072Z,98650.70
2018-07-30T20:58:23.228Z,98656.80
2018-07-30T21:00:52.376Z,98658.80
2018-07-30T21:03:21.540Z,98666.25
2018-07-30T21:05:50.652Z,98662.02
2018-07-30T21:08:19.833Z,98662.36
2018-07-30T21:10:48.940Z,98658.92
2018-07-30T21:13:18.105Z,98661.13
2018-07-30T21:15:47.244Z,98667.14
2018-07-30T21:18:16.469Z,98667.94
2018-07-30T21:20:45.625Z,98666.41
2018-07-30T21:23:14.725Z,98674.41
2018-07-30T21:25:43.901Z,98669.80
2018-07-30T21:28:13.322Z,98673.15
2018-07-30T21:30:42.493Z,98680.59
2018-07-30T21:33:11.792Z,98669.80
2018-07-30T21:35:40.967Z,98673.97
2018-07-30T21:38:10.097Z,98670.53
2018-07-30T21:40:39.222Z,98673.75
2018-07-30T21:43:08.498Z,98678.55
2018-07-30T21:45:37.610Z,98678.22
2018-07-30T21:48:06.801Z,98685.81
2018-07-30T21:50:35.928Z,98688.06
2018-07-30T21:53:05.086Z,98682.16
2018-07-30T21:55:34.274Z,98677.36
2018-07-30T21:58:03.426Z,98676.64
2018-07-30T22:00:32.597Z,98673.50
2018-07-30T22:03:01.746Z,98680.51
2018-07-30T22:05:30.896Z,98682.02
2018-07-30T22:08:00.046Z,98684.48
2018-07-30T22:10:29.303Z,98684.02
2018-07-30T22:12:58.488Z,98684.90
2018-07-30T22:15:28.004Z,98680.73
2018-07-30T22:17:57.156Z,98676.81
2018-07-30T22:20:26.351Z,98678.25
2018-07-30T22:22:55.439Z,98678.88
2018-07-30T22:25:24.653Z,98683.03
2018-07-30T22:27:53.841Z,98685.91
2018-07-30T22:30:22.984Z,98678.52
2018-07-30T22:32:52.108Z,98682.52
2018-07-30T22:35:21.263Z,98681.27
2018-07-30T22:37:52.211Z,98676.42
2018-07-30T22:40:21.359Z,98681.13
2018-07-30T22:42:50.497Z,98684.39
2018-07-30T22:45:19.625Z,98683.91
2018-07-30T22:47:49.039Z,98689.09
2018-07-30T22:50:18.203Z,98687.63
2018-07-30T22:52:47.322Z,98684.98
2018-07-30T22:55:17.478Z,98692.53
2018-07-30T22:57:46.614Z,98685.20
2018-07-30T23:00:15.754Z,98687.25
2018-07-30T23:02:44.894Z,98687.39
2018-07-30T23:05:14.113Z,98675.97
2018-07-30T23:07:43.345Z,98682.88
2018-07-30T23:10:12.487Z,98678.34
2018-07-30T23:12:41.700Z,98676.98
2018-07-30T23:15:11.011Z,98681.05
2018-07-30T23:17:40.152Z,98685.11
2018-07-30T23:20:09.373Z,98687.97
2018-07-30T23:22:38.603Z,98680.01
2018-07-30T23:25:08.000Z,98683.41
2018-07-30T23:27:37.182Z,98686.98
2018-07-30T23:30:06.902Z,98685.28
2018-07-30T23:32:36.021Z,98691.94
2018-07-30T23:35:05.186Z,98699.06
2018-07-30T23:37:34.410Z,98697.36
2018-07-30T23:40:03.594Z,98693.29
2018-07-30T23:42:32.849Z,98685.42
2018-07-30T23:45:02.014Z,98684.55
2018-07-30T23:47:31.114Z,98678.33
2018-07-30T23:50:00.272Z,98684.06
2018-07-30T23:52:29.513Z,98682.52
2018-07-30T23:54:58.719Z,98683.00
2018-07-30T23:57:27.781Z,98692.25
2018-07-30T23:59:56.889Z,98688.11
